Time;durP1;ratioP1;P1;durP2;ratioP2;P2;SDS_P1;SDS_P2;PMS_P1;PMS_P2;Temp;Humidity;BMP_temperature;BMP_pressure;BME280_temperature;BME280_humidity;BME280_pressure;Samples;Min_cycle;Max_cycle;Signal;HPM_P1;HPM_P2
2024/01/25 00:00:20;;;;;;;1.10;0.85;;;;;;;-146.30;100.00;58188.94;10387461;28;20133;-83
2024/01/25 00:05:22;;;;;;;0.88;0.60;;;;;;;-146.30;100.00;58188.94;10399607;28;20500;-83
2024/01/25 00:10:24;;;;;;;0.40;0.20;;;;;;;-146.30;100.00;58188.94;10380231;28;20050;-83
2024/01/25 00:15:26;;;;;;;0.00;0.00;;;;;;;-146.30;100.00;58188.94;10389423;28;20501;-81
2024/01/25 00:20:28;;;;;;;2.40;0.38;;;;;;;-146.30;100.00;58188.94;10389745;28;20073;-82
2024/01/25 00:25:30;;;;;;;9.55;0.10;;;;;;;-146.30;100.00;58188.94;10353474;28;20129;-82
2024/01/25 00:30:32;;;;;;;0.22;0.22;;;;;;;-146.30;100.00;58188.94;10370074;28;20060;-82
2024/01/25 00:35:34;;;;;;;0.77;0.35;;;;;;;-146.30;100.00;58188.94;10359172;28;20046;-82
2024/01/25 00:40:36;;;;;;;0.00;0.00;;;;;;;-146.30;100.00;58188.94;10385649;28;20085;-82
2024/01/25 00:45:38;;;;;;;0.00;0.00;;;;;;;-146.30;100.00;58188.94;10369013;28;20048;-82
2024/01/25 00:50:40;;;;;;;0.47;0.35;;;;;;;-146.30;100.00;58188.94;10385638;28;20497;-83
2024/01/25 00:55:42;;;;;;;0.08;0.05;;;;;;;-146.30;100.00;58188.94;10393845;28;20050;-83
2024/01/25 01:00:44;;;;;;;0.22;0.22;;;;;;;-146.30;100.00;58188.94;10387991;28;20104;-83
2024/01/25 01:05:46;;;;;;;2.38;0.80;;;;;;;-146.30;100.00;58188.94;10384936;28;20096;-82
2024/01/25 01:10:48;;;;;;;3.20;0.30;;;;;;;-146.30;100.00;58188.94;10384507;28;20145;-83
2024/01/25 01:15:50;;;;;;;4.40;0.43;;;;;;;-146.30;100.00;58188.94;10380265;28;20066;-82
2024/01/25 01:20:51;;;;;;;0.00;0.00;;;;;;;-146.30;100.00;58188.94;10374355;28;20120;-82
2024/01/25 01:25:53;;;;;;;0.70;0.30;;;;;;;-146.30;100.00;58188.94;10367483;28;20042;-82
2024/01/25 01:30:55;;;;;;;0.00;0.00;;;;;;;-146.30;100.00;58188.94;10360107;28;20382;-83
2024/01/25 01:35:57;;;;;;;0.55;0.38;;;;;;;-146.30;100.00;58188.94;10377376;28;20042;-83
2024/01/25 01:40:58;;;;;;;0.00;0.00;;;;;;;-146.30;100.00;58188.94;10367476;28;20053;-83
2024/01/25 01:46:06;;;;;;;0.00;0.00;;;;;;;-146.30;100.00;58188.94;10361587;28;20042;-82
2024/01/25 01:51:08;;;;;;;0.35;0.00;;;;;;;-146.30;100.00;58188.94;10366653;28;20053;-83
2024/01/25 01:56:11;;;;;;;0.10;0.00;;;;;;;-146.30;100.00;58188.94;10378824;28;20038;-82
2024/01/25 02:01:13;;;;;;;1.02;0.20;;;;;;;-146.30;100.00;58188.94;10365529;28;20056;-83
2024/01/25 02:06:15;;;;;;;0.55;0.55;;;;;;;-146.30;100.00;58188.94;10377385;28;20034;-83
2024/01/25 02:11:17;;;;;;;0.00;0.00;;;;;;;-146.30;100.00;58188.94;10375850;28;20413;-84
2024/01/25 02:16:19;;;;;;;0.00;0.00;;;;;;;-146.30;100.00;58188.94;10380298;28;20038;-83
2024/01/25 02:21:22;;;;;;;0.00;0.00;;;;;;;-146.30;100.00;58188.94;10373940;28;20049;-83
2024/01/25 02:26:23;;;;;;;11.55;1.27;;;;;;;-146.30;100.00;58188.94;10359946;28;20045;-83
2024/01/25 02:31:25;;;;;;;0.00;0.00;;;;;;;-146.30;100.00;58188.94;10364203;28;20051;-83
2024/01/25 02:36:27;;;;;;;2.70;0.70;;;;;;;-146.30;100.00;58188.94;10362296;28;20038;-83
2024/01/25 02:41:30;;;;;;;0.10;0.10;;;;;;;-146.30;100.00;58188.94;10378634;28;20065;-83
2024/01/25 02:46:32;;;;;;;1.88;1.13;;;;;;;-146.30;100.00;58188.94;10357353;28;20042;-83
2024/01/25 02:51:33;;;;;;;0.00;0.00;;;;;;;-146.30;100.00;58188.94;10386080;28;20148;-83
2024/01/25 02:56:35;;;;;;;1.00;0.65;;;;;;;-146.30;100.00;58188.94;10383504;28;20042;-83
2024/01/25 03:01:41;;;;;;;0.05;0.05;;;;;;;-146.30;100.00;58188.94;10376318;28;20046;-83
2024/01/25 03:06:43;;;;;;;6.05;0.73;;;;;;;-146.30;100.00;58188.94;10358634;28;20050;-83
2024/01/25 03:11:45;;;;;;;0.28;0.20;;;;;;;-146.30;100.00;58188.94;10378718;28;20511;-83
2024/01/25 03:16:47;;;;;;;0.00;0.00;;;;;;;-146.30;100.00;58188.94;10380408;28;20557;-83
2024/01/25 03:21:48;;;;;;;1.90;0.60;;;;;;;-146.30;100.00;58188.94;10373600;28;20056;-83
2024/01/25 03:26:51;;;;;;;0.00;0.00;;;;;;;-146.30;100.00;58188.94;10352977;28;20068;-83
2024/01/25 03:31:53;;;;;;;0.00;0.00;;;;;;;-146.30;100.00;58188.94;10368023;28;20522;-82
2024/01/25 03:36:54;;;;;;;0.00;0.00;;;;;;;-146.30;100.00;58188.94;10362981;28;20462;-83
2024/01/25 03:41:56;;;;;;;0.00;0.00;;;;;;;-146.30;100.00;58188.94;10368095;28;20443;-83
2024/01/25 03:46:58;;;;;;;0.00;0.00;;;;;;;-146.30;100.00;58188.94;10348897;28;20057;-83
2024/01/25 03:51:59;;;;;;;0.60;0.28;;;;;;;-146.30;100.00;58188.94;10373406;28;20054;-83
2024/01/25 03:57:01;;;;;;;0.38;0.22;;;;;;;-146.30;100.00;58188.94;10388829;28;20054;-82
2024/01/25 04:02:03;;;;;;;0.00;0.00;;;;;;;-146.30;100.00;58188.94;10382539;28;20073;-83
2024/01/25 04:07:05;;;;;;;0.00;0.00;;;;;;;-146.30;100.00;58188.94;10386320;28;20137;-83
2024/01/25 04:12:07;;;;;;;2.72;0.20;;;;;;;-146.30;100.00;58188.94;10376938;28;20044;-83
2024/01/25 04:17:09;;;;;;;0.00;0.00;;;;;;;-146.30;100.00;58188.94;10368715;28;20041;-84
2024/01/25 04:22:11;;;;;;;0.30;0.20;;;;;;;-146.30;100.00;58188.94;10367930;28;20484;-84
2024/01/25 04:27:13;;;;;;;0.45;0.45;;;;;;;-146.30;100.00;58188.94;10358848;28;20046;-83
2024/01/25 04:32:14;;;;;;;0.47;0.32;;;;;;;-146.30;100.00;58188.94;10386094;28;20425;-84
2024/01/25 04:37:16;;;;;;;0.00;0.00;;;;;;;-146.30;100.00;58188.94;10354061;28;20042;-83
2024/01/25 04:42:18;;;;;;;0.43;0.43;;;;;;;-146.30;100.00;58188.94;10374224;28;20497;-83
2024/01/25 04:47:20;;;;;;;0.30;0.30;;;;;;;-146.30;100.00;58188.94;10390107;28;21460;-83
2024/01/25 04:52:22;;;;;;;0.00;0.00;;;;;;;-146.30;100.00;58188.94;10399711;28;20065;-83
2024/01/25 04:57:23;;;;;;;0.00;0.00;;;;;;;-146.30;100.00;58188.94;10354295;28;20069;-84
2024/01/25 05:02:25;;;;;;;0.00;0.00;;;;;;;-146.30;100.00;58188.94;10364016;28;20052;-84
2024/01/25 05:07:27;;;;;;;0.63;0.43;;;;;;;-146.30;100.00;58188.94;10369396;28;20045;-84
2024/01/25 05:12:31;;;;;;;0.00;0.00;;;;;;;-146.30;100.00;58188.94;10368183;28;20382;-85
2024/01/25 05:17:33;;;;;;;0.20;0.20;;;;;;;-146.30;100.00;58188.94;10369105;28;20463;-84
2024/01/25 05:22:40;;;;;;;0.00;0.00;;;;;;;-146.30;100.00;58188.94;10377007;28;20124;-85
2024/01/25 05:27:42;;;;;;;0.00;0.00;;;;;;;-146.30;100.00;58188.94;10381226;28;20062;-84
2024/01/25 05:32:45;;;;;;;1.65;1.55;;;;;;;-146.30;100.00;58188.94;10376137;28;20456;-84
2024/01/25 05:37:47;;;;;;;0.00;0.00;;;;;;;-146.30;100.00;58188.94;10396326;28;20052;-85
2024/01/25 05:42:49;;;;;;;0.03;0.03;;;;;;;-146.30;100.00;58188.94;10382876;28;20098;-85
2024/01/25 05:47:51;;;;;;;0.00;0.00;;;;;;;-146.30;100.00;58188.94;10361804;28;20045;-84
2024/01/25 05:52:52;;;;;;;1.35;0.98;;;;;;;-146.30;100.00;58188.94;10373548;28;20100;-85
2024/01/25 05:57:54;;;;;;;1.35;1.25;;;;;;;-146.30;100.00;58188.94;10360908;28;20050;-84
2024/01/25 06:02:56;;;;;;;1.02;0.85;;;;;;;-146.30;100.00;58188.94;10380878;28;20052;-84
2024/01/25 06:07:58;;;;;;;2.13;0.90;;;;;;;-146.30;100.00;58188.94;10385633;28;20037;-84
2024/01/25 06:13:00;;;;;;;2.72;0.20;;;;;;;-146.30;100.00;58188.94;10396889;28;20133;-84
2024/01/25 06:18:03;;;;;;;0.05;0.05;;;;;;;-146.30;100.00;58188.94;10375915;28;20046;-85
2024/01/25 06:23:04;;;;;;;0.00;0.00;;;;;;;-146.30;100.00;58188.94;10371339;28;20448;-85
2024/01/25 06:28:06;;;;;;;0.00;0.00;;;;;;;-146.30;100.00;58188.94;10374663;28;20077;-85
2024/01/25 06:33:08;;;;;;;0.65;0.65;;;;;;;-146.30;100.00;58188.94;10376173;28;20081;-83
2024/01/25 06:38:10;;;;;;;26.50;0.80;;;;;;;-146.30;100.00;58188.94;10362573;28;20092;-84
2024/01/25 06:43:11;;;;;;;0.00;0.00;;;;;;;-146.30;100.00;58188.94;10390286;28;20073;-84
2024/01/25 06:48:14;;;;;;;0.10;0.10;;;;;;;-146.30;100.00;58188.94;10364543;28;20046;-84
2024/01/25 06:53:17;;;;;;;0.00;0.00;;;;;;;-146.30;100.00;58188.94;10372271;28;20501;-84
2024/01/25 06:58:18;;;;;;;1.63;0.88;;;;;;;-146.30;100.00;58188.94;10377653;28;20077;-84
2024/01/25 07:03:21;;;;;;;0.00;0.00;;;;;;;-146.30;100.00;58188.94;10380737;28;20492;-84
2024/01/25 07:08:24;;;;;;;0.10;0.10;;;;;;;-146.30;100.00;58188.94;10358623;28;20523;-84
2024/01/25 07:13:25;;;;;;;0.25;0.25;;;;;;;-146.30;100.00;58188.94;10360808;28;20073;-83
2024/01/25 07:18:27;;;;;;;0.00;0.00;;;;;;;-146.30;100.00;58188.94;10360380;28;20046;-83
2024/01/25 07:23:30;;;;;;;0.00;0.00;;;;;;;-146.30;100.00;58188.94;10372306;28;20571;-84
2024/01/25 07:28:32;;;;;;;2.20;1.35;;;;;;;-146.30;100.00;58188.94;10385319;28;20060;-84
2024/01/25 07:33:33;;;;;;;0.35;0.30;;;;;;;-146.30;100.00;58188.94;10381833;28;20054;-83
2024/01/25 07:38:35;;;;;;;10.30;1.55;;;;;;;-146.30;100.00;58188.94;10368330;28;20392;-83
2024/01/25 07:43:37;;;;;;;0.00;0.00;;;;;;;-146.30;100.00;58188.94;10387757;28;20042;-84
2024/01/25 07:48:39;;;;;;;0.00;0.00;;;;;;;-146.30;100.00;58188.94;10383466;28;20073;-84
2024/01/25 07:53:41;;;;;;;6.22;0.55;;;;;;;-146.30;100.00;58188.94;10386634;28;20062;-84
2024/01/25 07:58:43;;;;;;;0.20;0.20;;;;;;;-146.30;100.00;58188.94;10384244;28;20531;-83
2024/01/25 08:03:45;;;;;;;0.20;0.20;;;;;;;-146.30;100.00;58188.94;10384642;28;20073;-83
2024/01/25 08:08:47;;;;;;;8.88;0.60;;;;;;;-146.30;100.00;58188.94;10371988;28;20045;-84
2024/01/25 08:13:49;;;;;;;0.57;0.50;;;;;;;-146.30;100.00;58188.94;10362892;28;20126;-85
2024/01/25 08:18:52;;;;;;;0.03;0.03;;;;;;;-146.30;100.00;58188.94;10402635;28;20262;-85
2024/01/25 08:23:54;;;;;;;3.13;1.70;;;;;;;-146.30;100.00;58188.94;10361021;28;20060;-85
2024/01/25 08:28:55;;;;;;;0.03;0.03;;;;;;;-146.30;100.00;58188.94;10375525;28;20056;-85
2024/01/25 08:33:57;;;;;;;0.00;0.00;;;;;;;-146.30;100.00;58188.94;10368545;28;20060;-85
2024/01/25 08:38:59;;;;;;;0.00;0.00;;;;;;;-146.30;100.00;58188.94;10369229;28;20050;-85
2024/01/25 08:44:01;;;;;;;0.75;0.43;;;;;;;-146.30;100.00;58188.94;10356443;28;20073;-85
2024/01/25 08:49:08;;;;;;;0.22;0.22;;;;;;;-146.30;100.00;58188.94;10405621;28;20077;-85
2024/01/25 08:54:10;;;;;;;0.95;0.73;;;;;;;-146.30;100.00;58188.94;10392004;28;20072;-85
2024/01/25 08:59:12;;;;;;;0.70;0.70;;;;;;;-146.30;100.00;58188.94;10383510;28;20076;-85
2024/01/25 09:04:14;;;;;;;0.93;0.75;;;;;;;-146.30;100.00;58188.94;10385092;28;20041;-85
2024/01/25 09:09:16;;;;;;;0.30;0.15;;;;;;;-146.30;100.00;58188.94;10397257;28;20045;-84
2024/01/25 09:14:17;;;;;;;0.57;0.32;;;;;;;-146.30;100.00;58188.94;10375442;28;20050;-85
2024/01/25 09:19:20;;;;;;;0.00;0.00;;;;;;;-146.30;100.00;58188.94;10378762;28;20496;-84
2024/01/25 09:24:22;;;;;;;0.10;0.10;;;;;;;-146.30;100.00;58188.94;10362950;28;20066;-84
2024/01/25 09:29:25;;;;;;;0.32;0.30;;;;;;;-146.30;100.00;58188.94;10396685;28;20104;-84
2024/01/25 09:34:27;;;;;;;0.40;0.20;;;;;;;-146.30;100.00;58188.94;10363664;28;20045;-85
2024/01/25 09:39:31;;;;;;;0.20;0.20;;;;;;;-146.30;100.00;58188.94;10369199;28;20050;-83
2024/01/25 09:44:33;;;;;;;0.10;0.10;;;;;;;-146.30;100.00;58188.94;10363639;28;20138;-84
2024/01/25 09:49:35;;;;;;;0.55;0.35;;;;;;;-146.30;100.00;58188.94;10363043;28;20137;-84
2024/01/25 09:54:39;;;;;;;2.55;0.73;;;;;;;-146.30;100.00;58188.94;10355204;28;20194;-85
2024/01/25 09:59:41;;;;;;;1.85;0.65;;;;;;;-146.30;100.00;58188.94;10377398;28;20136;-84
2024/01/25 10:04:49;;;;;;;2.10;0.65;;;;;;;-146.30;100.00;58188.94;10364615;28;20034;-84
2024/01/25 10:09:52;;;;;;;0.00;0.00;;;;;;;-146.30;100.00;58188.94;10382754;28;20555;-83
2024/01/25 10:14:54;;;;;;;3.08;0.88;;;;;;;-146.30;100.00;58188.94;10397875;28;20046;-83
2024/01/25 10:19:56;;;;;;;1.42;0.63;;;;;;;-146.30;100.00;58188.94;10380548;28;20050;-83
2024/01/25 10:24:58;;;;;;;0.30;0.30;;;;;;;-146.30;100.00;58188.94;10368478;28;20046;-82
2024/01/25 10:30:00;;;;;;;1.27;0.30;;;;;;;-146.30;100.00;58188.94;10366951;28;20504;-83
2024/01/25 10:35:03;;;;;;;1.35;0.73;;;;;;;-146.30;100.00;58188.94;10359110;28;20417;-83
2024/01/25 10:40:07;;;;;;;0.03;0.03;;;;;;;-146.30;100.00;58188.94;10367089;28;20085;-83
2024/01/25 10:45:09;;;;;;;0.57;0.57;;;;;;;-146.30;100.00;58188.94;10376784;28;20217;-83
2024/01/25 10:50:13;;;;;;;0.00;0.00;;;;;;;-146.30;100.00;58188.94;10376903;28;20057;-85
2024/01/25 10:55:16;;;;;;;0.15;0.15;;;;;;;-146.30;100.00;58188.94;10345098;28;20112;-84
2024/01/25 11:00:18;;;;;;;1.77;1.67;;;;;;;-146.30;100.00;58188.94;10395920;28;20052;-84
2024/01/25 11:05:20;;;;;;;4.57;3.00;;;;;;;-146.30;100.00;58188.94;10377003;28;20060;-84
2024/01/25 11:10:26;;;;;;;0.77;0.50;;;;;;;-146.30;100.00;58188.94;10384645;28;20405;-84
2024/01/25 11:15:33;;;;;;;0.40;0.40;;;;;;;-146.30;100.00;58188.94;10373364;28;20144;-84
2024/01/25 11:20:36;;;;;;;1.45;0.52;;;;;;;-146.30;100.00;58188.94;10380272;28;20041;-83
2024/01/25 11:25:38;;;;;;;1.02;0.95;;;;;;;-146.30;100.00;58188.94;10369593;28;20882;-84
2024/01/25 11:30:40;;;;;;;5.70;1.20;;;;;;;-146.30;100.00;58188.94;10388953;28;20489;-83
2024/01/25 11:35:42;;;;;;;4.03;2.05;;;;;;;-146.30;100.00;58188.94;10373709;28;20042;-83
2024/01/25 11:40:44;;;;;;;0.28;0.28;;;;;;;-146.30;100.00;58188.94;10375403;28;20050;-84
2024/01/25 11:45:46;;;;;;;1.95;0.63;;;;;;;-146.30;100.00;58188.94;10374457;28;20460;-84
2024/01/25 11:50:49;;;;;;;0.30;0.30;;;;;;;-146.30;100.00;58188.94;10385378;28;20048;-84
2024/01/25 11:55:55;;;;;;;1.13;0.73;;;;;;;-146.30;100.00;58188.94;10381303;28;20054;-84
2024/01/25 12:00:57;;;;;;;0.70;0.13;;;;;;;-146.30;100.00;58188.94;10383789;28;20567;-84
2024/01/25 12:06:00;;;;;;;4.38;1.10;;;;;;;-146.30;100.00;58188.94;10378670;28;20056;-85
2024/01/25 12:11:06;;;;;;;1.88;1.67;;;;;;;-146.30;100.00;58188.94;10381814;28;20199;-84
2024/01/25 12:16:09;;;;;;;0.63;0.50;;;;;;;-146.30;100.00;58188.94;10390807;28;20129;-84
2024/01/25 12:21:13;;;;;;;1.05;0.90;;;;;;;-146.30;100.00;58188.94;10367686;28;20054;-84
2024/01/25 12:26:16;;;;;;;1.25;0.80;;;;;;;-146.30;100.00;58188.94;10381323;28;20034;-84
2024/01/25 12:31:18;;;;;;;1.33;1.23;;;;;;;-146.30;100.00;58188.94;10380189;28;20107;-85
2024/01/25 12:36:19;;;;;;;0.20;0.20;;;;;;;-146.30;100.00;58188.94;10378003;28;20034;-84
2024/01/25 12:41:21;;;;;;;5.38;1.60;;;;;;;-146.30;100.00;58188.94;10392268;28;20077;-83
2024/01/25 12:46:24;;;;;;;1.58;0.82;;;;;;;-146.30;100.00;58188.94;10363147;28;20112;-84
2024/01/25 12:51:29;;;;;;;4.47;1.55;;;;;;;-146.30;100.00;58188.94;10400832;28;20096;-84
2024/01/25 12:56:31;;;;;;;0.05;0.05;;;;;;;-146.30;100.00;58188.94;10381258;28;20042;-84
2024/01/25 13:01:33;;;;;;;0.10;0.10;;;;;;;-146.30;100.00;58188.94;10376190;28;20049;-85
2024/01/25 13:06:36;;;;;;;1.75;1.00;;;;;;;-146.30;100.00;58188.94;10380231;28;20049;-85
2024/01/25 13:11:39;;;;;;;0.60;0.60;;;;;;;-146.30;100.00;58188.94;10399896;28;20047;-84
2024/01/25 13:16:40;;;;;;;0.52;0.52;;;;;;;-146.30;100.00;58188.94;10395457;28;20511;-84
2024/01/25 13:21:42;;;;;;;1.08;0.60;;;;;;;-146.30;100.00;58188.94;10379279;28;20056;-85
2024/01/25 13:26:44;;;;;;;3.90;1.60;;;;;;;-146.30;100.00;58188.94;10360115;28;20046;-84
2024/01/25 13:31:46;;;;;;;5.38;2.08;;;;;;;-146.30;100.00;58188.94;10377021;28;20054;-84
2024/01/25 13:36:47;;;;;;;0.13;0.13;;;;;;;-146.30;100.00;58188.94;10367718;28;20054;-84
2024/01/25 13:41:50;;;;;;;0.85;0.50;;;;;;;-146.30;100.00;58188.94;10375465;28;20068;-85
2024/01/25 13:46:51;;;;;;;2.28;0.50;;;;;;;-146.30;100.00;58188.94;10352662;28;20475;-85
2024/01/25 13:51:54;;;;;;;0.93;0.80;;;;;;;-146.30;100.00;58188.94;10374321;28;20429;-84
2024/01/25 13:56:56;;;;;;;1.10;0.98;;;;;;;-146.30;100.00;58188.94;10376765;28;20049;-84
2024/01/25 14:01:58;;;;;;;0.08;0.08;;;;;;;-146.30;100.00;58188.94;10385964;28;20065;-84
2024/01/25 14:06:59;;;;;;;1.23;0.52;;;;;;;-146.30;100.00;58188.94;10370697;28;20056;-84
2024/01/25 14:12:02;;;;;;;0.50;0.50;;;;;;;-146.30;100.00;58188.94;10383461;28;20050;-84
2024/01/25 14:17:04;;;;;;;2.70;1.25;;;;;;;-146.30;100.00;58188.94;10381765;28;20072;-84
2024/01/25 14:22:06;;;;;;;0.88;0.52;;;;;;;-146.30;100.00;58188.94;10365901;28;20496;-84
2024/01/25 14:27:28;;;;;;;2.67;1.35;;;;;;;-146.30;100.00;58188.94;10352717;28;20050;-83
2024/01/25 14:32:30;;;;;;;2.42;0.55;;;;;;;-146.30;100.00;58188.94;10367035;28;20075;-85
2024/01/25 14:37:31;;;;;;;1.20;0.90;;;;;;;-146.30;100.00;58188.94;10367444;28;20033;-84
2024/01/25 14:42:34;;;;;;;1.20;0.93;;;;;;;-146.30;100.00;58188.94;10372265;28;20456;-84
2024/01/25 14:47:35;;;;;;;1.15;0.82;;;;;;;-146.30;100.00;58188.94;10367685;28;20128;-85
2024/01/25 14:52:37;;;;;;;3.25;1.42;;;;;;;-146.30;100.00;58188.94;10377933;28;20049;-85
2024/01/25 14:57:39;;;;;;;10.13;0.95;;;;;;;-146.30;100.00;58188.94;10374945;28;20048;-85
2024/01/25 15:02:41;;;;;;;0.65;0.63;;;;;;;-146.30;100.00;58188.94;10378165;28;20053;-85
2024/01/25 15:07:43;;;;;;;3.13;1.15;;;;;;;-146.30;100.00;58188.94;10374698;28;20038;-84
2024/01/25 15:12:45;;;;;;;7.63;3.13;;;;;;;-146.30;100.00;58188.94;10379965;28;20077;-84
2024/01/25 15:17:47;;;;;;;4.10;1.08;;;;;;;-146.30;100.00;58188.94;10376304;28;20064;-84
2024/01/25 15:22:50;;;;;;;26.15;1.60;;;;;;;-146.30;100.00;58188.94;10370916;28;20117;-83
2024/01/25 15:27:51;;;;;;;3.63;1.50;;;;;;;-146.30;100.00;58188.94;10383034;28;20045;-84
2024/01/25 15:32:53;;;;;;;1.38;0.50;;;;;;;-146.30;100.00;58188.94;10360147;28;20049;-85
2024/01/25 15:37:55;;;;;;;1.02;0.63;;;;;;;-146.30;100.00;58188.94;10363059;28;20049;-84
2024/01/25 15:42:57;;;;;;;2.58;0.73;;;;;;;-146.30;100.00;58188.94;10390972;28;20152;-84
2024/01/25 15:47:59;;;;;;;6.18;2.80;;;;;;;-146.30;100.00;58188.94;10398349;28;20033;-84
2024/01/25 15:53:01;;;;;;;1.50;1.08;;;;;;;-146.30;100.00;58188.94;10396833;28;20416;-85
2024/01/25 15:58:03;;;;;;;13.43;1.15;;;;;;;-146.30;100.00;58188.94;10366790;28;20045;-85
2024/01/25 16:03:05;;;;;;;1.42;0.77;;;;;;;-146.30;100.00;58188.94;10379875;28;20493;-84
2024/01/25 16:08:07;;;;;;;6.65;0.85;;;;;;;-146.30;100.00;58188.94;10363986;28;20485;-84
2024/01/25 16:13:08;;;;;;;7.18;3.42;;;;;;;-146.30;100.00;58188.94;10384673;28;20084;-84
2024/01/25 16:18:11;;;;;;;0.35;0.35;;;;;;;-146.30;100.00;58188.94;10370247;28;20052;-84
2024/01/25 16:23:13;;;;;;;6.53;1.80;;;;;;;-146.30;100.00;58188.94;10378618;28;20501;-84
2024/01/25 16:28:15;;;;;;;0.45;0.45;;;;;;;-146.30;100.00;58188.94;10371335;28;20053;-84
2024/01/25 16:33:17;;;;;;;1.73;0.57;;;;;;;-146.30;100.00;58188.94;10383768;28;20042;-84
2024/01/25 16:38:19;;;;;;;0.50;0.43;;;;;;;-146.30;100.00;58188.94;10368515;28;20511;-85
2024/01/25 16:43:20;;;;;;;4.43;1.10;;;;;;;-146.30;100.00;58188.94;10382166;28;20073;-84
2024/01/25 16:48:22;;;;;;;2.65;1.50;;;;;;;-146.30;100.00;58188.94;10385378;28;20300;-84
2024/01/25 16:53:28;;;;;;;1.20;0.82;;;;;;;-146.30;100.00;58188.94;10380164;28;20496;-84
2024/01/25 16:58:29;;;;;;;1.17;0.68;;;;;;;-146.30;100.00;58188.94;10381244;28;20092;-85
2024/01/25 17:03:31;;;;;;;1.55;0.93;;;;;;;-146.30;100.00;58188.94;10379293;28;20046;-85
2024/01/25 17:08:34;;;;;;;1.17;0.82;;;;;;;-146.30;100.00;58188.94;10398455;28;20515;-85
2024/01/25 17:13:35;;;;;;;0.45;0.45;;;;;;;-146.30;100.00;58188.94;10364272;28;20049;-85
2024/01/25 17:18:37;;;;;;;7.18;2.13;;;;;;;-146.30;100.00;58188.94;10379314;28;20050;-85
2024/01/25 17:23:39;;;;;;;1.10;1.00;;;;;;;-146.30;100.00;58188.94;10383839;28;20138;-85
2024/01/25 17:28:41;;;;;;;0.55;0.47;;;;;;;-146.30;100.00;58188.94;10377419;28;20042;-85
2024/01/25 17:33:45;;;;;;;0.20;0.20;;;;;;;-146.30;100.00;58188.94;10374208;28;20117;-86
2024/01/25 17:38:47;;;;;;;3.55;2.78;;;;;;;-146.30;100.00;58188.94;10368218;28;20046;-85
2024/01/25 17:43:49;;;;;;;0.25;0.25;;;;;;;-146.30;100.00;58188.94;10391237;28;20046;-87
2024/01/25 17:48:52;;;;;;;3.83;1.55;;;;;;;-146.30;100.00;58188.94;10344660;28;20053;-87
2024/01/25 17:53:53;;;;;;;1.95;1.35;;;;;;;-146.30;100.00;58188.94;10367403;28;20065;-86
2024/01/25 17:58:57;;;;;;;2.40;1.90;;;;;;;-146.30;100.00;58188.94;10391943;28;20038;-87
2024/01/25 18:03:59;;;;;;;1.48;0.88;;;;;;;-146.30;100.00;58188.94;10381738;28;20053;-86
2024/01/25 18:09:01;;;;;;;1.88;1.35;;;;;;;-146.30;100.00;58188.94;10375232;28;20129;-86
2024/01/25 18:14:03;;;;;;;3.45;1.88;;;;;;;-146.30;100.00;58188.94;10367191;28;20157;-86
2024/01/25 18:19:05;;;;;;;1.50;1.33;;;;;;;-146.30;100.00;58188.94;10373928;28;20133;-86
2024/01/25 18:24:07;;;;;;;4.10;1.58;;;;;;;-146.30;100.00;58188.94;10355548;28;20049;-86
2024/01/25 18:29:08;;;;;;;1.90;1.45;;;;;;;-146.30;100.00;58188.94;10358360;28;20054;-85
2024/01/25 18:34:10;;;;;;;3.05;1.38;;;;;;;-146.30;100.00;58188.94;10365877;28;20084;-86
2024/01/25 18:39:12;;;;;;;0.77;0.70;;;;;;;-146.30;100.00;58188.94;10360011;28;20125;-86
2024/01/25 18:44:14;;;;;;;2.50;0.65;;;;;;;-146.30;100.00;58188.94;10355906;28;20053;-87
2024/01/25 18:49:16;;;;;;;2.13;1.38;;;;;;;-146.30;100.00;58188.94;10376054;28;20069;-86
2024/01/25 18:54:18;;;;;;;1.20;0.93;;;;;;;-146.30;100.00;58188.94;10361801;28;20053;-86
2024/01/25 18:59:24;;;;;;;0.90;0.60;;;;;;;-146.30;100.00;58188.94;10370647;28;20049;-86
2024/01/25 19:04:28;;;;;;;11.40;2.92;;;;;;;-146.30;100.00;58188.94;10369433;28;20054;-87
2024/01/25 19:09:31;;;;;;;4.72;1.33;;;;;;;-146.30;100.00;58188.94;10365733;28;20548;-85
2024/01/25 19:14:33;;;;;;;2.33;1.77;;;;;;;-146.30;100.00;58188.94;10349221;28;20409;-85
2024/01/25 19:19:35;;;;;;;0.93;0.68;;;;;;;-146.30;100.00;58188.94;10376459;28;20132;-85
2024/01/25 19:24:37;;;;;;;15.10;2.40;;;;;;;-146.30;100.00;58188.94;10380824;28;20052;-86
2024/01/25 19:29:39;;;;;;;21.42;1.92;;;;;;;-146.30;100.00;58188.94;10394220;28;20394;-85
2024/01/25 19:34:41;;;;;;;1.75;1.15;;;;;;;-146.30;100.00;58188.94;10360272;28;20096;-86
2024/01/25 19:39:44;;;;;;;1.90;1.15;;;;;;;-146.30;100.00;58188.94;10370831;28;20092;-86
2024/01/25 19:44:46;;;;;;;2.45;0.77;;;;;;;-146.30;100.00;58188.94;10386992;28;20132;-86
2024/01/25 19:49:49;;;;;;;5.35;2.35;;;;;;;-146.30;100.00;58188.94;10377800;28;20132;-86
2024/01/25 19:54:51;;;;;;;3.53;1.92;;;;;;;-146.30;100.00;58188.94;10362434;28;20077;-86
2024/01/25 19:59:53;;;;;;;5.65;2.05;;;;;;;-146.30;100.00;58188.94;10379718;28;20113;-86
2024/01/25 20:04:55;;;;;;;3.70;1.13;;;;;;;-146.30;100.00;58188.94;10367607;28;20054;-86
2024/01/25 20:09:58;;;;;;;21.67;1.15;;;;;;;-146.30;100.00;58188.94;10381656;28;20049;-87
2024/01/25 20:15:00;;;;;;;0.68;0.65;;;;;;;-146.30;100.00;58188.94;10380634;28;20069;-86
2024/01/25 20:20:02;;;;;;;5.85;1.10;;;;;;;-146.30;100.00;58188.94;10397143;28;20104;-85
2024/01/25 20:25:05;;;;;;;3.88;2.28;;;;;;;-146.30;100.00;58188.94;10374401;28;20065;-85
2024/01/25 20:30:07;;;;;;;2.67;1.60;;;;;;;-146.30;100.00;58188.94;10410832;28;20050;-86
2024/01/25 20:35:09;;;;;;;3.33;1.33;;;;;;;-146.30;100.00;58188.94;10375127;28;20050;-86
2024/01/25 20:40:11;;;;;;;1.92;0.98;;;;;;;-146.30;100.00;58188.94;10409561;28;20069;-85
2024/01/25 20:45:13;;;;;;;9.82;1.40;;;;;;;-146.30;100.00;58188.94;10375404;28;20049;-87
2024/01/25 20:50:15;;;;;;;1.80;0.88;;;;;;;-146.30;100.00;58188.94;10388869;28;20042;-86
2024/01/25 20:55:26;;;;;;;3.05;1.15;;;;;;;-146.30;100.00;58188.94;10377816;28;20472;-86
2024/01/25 21:00:29;;;;;;;1.73;1.13;;;;;;;-146.30;100.00;58188.94;10379473;28;20465;-86
2024/01/25 21:05:31;;;;;;;5.05;1.25;;;;;;;-146.30;100.00;58188.94;10357765;28;20045;-87
2024/01/25 21:10:33;;;;;;;2.70;1.15;;;;;;;-146.30;100.00;58188.94;10372988;28;20045;-89
2024/01/25 21:15:35;;;;;;;2.40;0.93;;;;;;;-146.30;100.00;58188.94;10383818;28;20077;-87
2024/01/25 21:20:37;;;;;;;4.05;1.50;;;;;;;-146.30;100.00;58188.94;10376677;28;20042;-86
2024/01/25 21:25:39;;;;;;;0.95;0.68;;;;;;;-146.30;100.00;58188.94;10372814;28;20133;-86
2024/01/25 21:30:40;;;;;;;2.25;1.13;;;;;;;-146.30;100.00;58188.94;10376452;28;20133;-88
2024/01/25 21:35:42;;;;;;;1.67;0.82;;;;;;;-146.30;100.00;58188.94;10363500;28;20104;-87
2024/01/25 21:40:44;;;;;;;1.48;0.95;;;;;;;-146.30;100.00;58188.94;10380040;28;20504;-86
2024/01/25 21:45:46;;;;;;;2.97;1.33;;;;;;;-146.30;100.00;58188.94;10379095;28;20045;-85
2024/01/25 21:50:48;;;;;;;0.82;0.45;;;;;;;-146.30;100.00;58188.94;10376836;28;20081;-87
2024/01/25 21:55:50;;;;;;;1.02;0.93;;;;;;;-146.30;100.00;58188.94;10384245;28;20054;-86
2024/01/25 22:00:52;;;;;;;2.30;0.73;;;;;;;-146.30;100.00;58188.94;10401152;28;20091;-86
2024/01/25 22:05:54;;;;;;;1.15;1.05;;;;;;;-146.30;100.00;58188.94;10360823;28;20078;-87
2024/01/25 22:10:57;;;;;;;0.93;0.90;;;;;;;-146.30;100.00;58188.94;10367861;28;20049;-87
2024/01/25 22:15:59;;;;;;;3.03;1.92;;;;;;;-146.30;100.00;58188.94;10368750;28;20409;-90
2024/01/25 22:21:01;;;;;;;3.05;1.65;;;;;;;-146.30;100.00;58188.94;10391662;28;20049;-88
2024/01/25 22:26:03;;;;;;;2.85;1.88;;;;;;;-146.30;100.00;58188.94;10360571;28;20112;-88
2024/01/25 22:31:06;;;;;;;1.05;0.93;;;;;;;-146.30;100.00;58188.94;10395858;28;20046;-87
2024/01/25 22:36:10;;;;;;;3.03;1.92;;;;;;;-146.30;100.00;58188.94;10376318;28;20053;-87